Time;durP1;ratioP1;P1;durP2;ratioP2;P2;SDS_P1;SDS_P2;PMS_P1;PMS_P2;Temp;Humidity;BMP_temperature;BMP_pressure;BME280_temperature;BME280_humidity;BME280_pressure;Samples;Min_cycle;Max_cycle;Signal;HPM_P1;HPM_P2
2022/10/17 00:02:50;;;;;;;21.60;9.32;;;;;14.80;96960.00;;;;8314795;28;20271;-87
2022/10/17 00:07:28;;;;;;;29.15;9.73;;;;;14.70;96965.00;;;;8325404;28;20651;-87
2022/10/17 00:11:32;;;;;;;27.38;9.75;;;;;14.70;96965.00;;;;8327516;28;20308;-87
2022/10/17 00:15:35;;;;;;;27.77;9.65;;;;;14.70;96963.00;;;;8327260;28;20248;-86
2022/10/17 00:19:38;;;;;;;27.58;9.07;;;;;14.70;96973.00;;;;8327085;28;20232;-88
2022/10/17 00:24:16;;;;;;;23.25;9.32;;;;;14.60;96975.00;;;;8328743;28;20540;-87
2022/10/17 00:28:19;;;;;;;27.60;10.15;;;;;14.60;96982.00;;;;8326712;28;20603;-88
2022/10/17 00:32:23;;;;;;;25.75;10.45;;;;;14.60;96978.00;;;;8327902;28;20307;-87
2022/10/17 00:37:00;;;;;;;24.95;11.45;;;;;14.60;96989.00;;;;8328167;28;20217;-86
2022/10/17 00:41:05;;;;;;;32.08;10.73;;;;;14.60;96997.00;;;;8360373;28;20425;-87
2022/10/17 00:45:21;;;;;;;30.10;10.63;;;;;14.60;96992.00;;;;8359659;28;20694;-86
2022/10/17 00:49:29;;;;;;;133.18;13.55;;;;;14.60;97004.00;;;;8359944;28;20232;-87
2022/10/17 00:54:02;;;;;;;31.73;10.40;;;;;14.50;97000.00;;;;8360535;28;20590;-88
2022/10/17 00:58:07;;;;;;;177.82;15.43;;;;;14.40;96989.00;;;;8330314;28;20225;-85
2022/10/17 01:02:13;;;;;;;284.30;18.63;;;;;14.30;96990.00;;;;8327225;28;20228;-86
2022/10/17 01:06:44;;;;;;;34.55;9.65;;;;;14.20;96996.00;;;;8327526;28;20213;-86
2022/10/17 01:11:00;;;;;;;25.05;9.70;;;;;14.20;96996.00;;;;8326467;28;20220;-87
2022/10/17 01:15:12;;;;;;;27.15;10.88;;;;;14.20;96991.00;;;;8324760;28;20583;-87
2022/10/17 01:19:41;;;;;;;69.43;10.80;;;;;14.20;97000.00;;;;8326809;28;20221;-85
2022/10/17 01:24:27;;;;;;;34.22;10.32;;;;;14.10;96999.00;;;;8322510;28;20217;-85
2022/10/17 01:29:00;;;;;;;194.18;15.70;;;;;14.00;96999.00;;;;8328128;28;20279;-86
2022/10/17 01:33:11;;;;;;;48.55;10.82;;;;;13.80;96998.00;;;;8330436;28;20275;-86
2022/10/17 01:37:20;;;;;;;571.17;30.15;;;;;13.70;96984.00;;;;8332770;28;20227;-85
2022/10/17 01:41:56;;;;;;;110.95;13.45;;;;;13.60;96975.00;;;;8333460;28;20232;-86
2022/10/17 01:46:03;;;;;;;37.05;10.13;;;;;13.60;96976.00;;;;8332597;28;20271;-85
2022/10/17 01:50:14;;;;;;;55.97;11.30;;;;;13.50;96973.00;;;;8332575;28;20221;-85
2022/10/17 01:54:43;;;;;;;41.17;11.45;;;;;13.40;96976.00;;;;8331558;28;20248;-85
2022/10/17 01:58:50;;;;;;;123.18;12.90;;;;;13.40;96983.00;;;;8332575;28;20221;-85
2022/10/17 02:02:58;;;;;;;139.30;14.77;;;;;13.40;96983.00;;;;8332020;28;20330;-85
2022/10/17 02:07:08;;;;;;;467.52;26.63;;;;;13.30;96979.00;;;;8332137;28;20239;-85
2022/10/17 02:11:15;;;;;;;127.68;16.00;;;;;13.30;96983.00;;;;8331138;28;20240;-86
2022/10/17 02:15:46;;;;;;;53.17;11.65;;;;;13.20;96978.00;;;;8332484;28;20232;-84
2022/10/17 02:20:24;;;;;;;79.13;13.40;;;;;13.10;96983.00;;;;8331503;28;20220;-84
2022/10/17 02:24:34;;;;;;;337.60;21.55;;;;;13.10;96974.00;;;;8331291;28;20230;-87
2022/10/17 02:28:43;;;;;;;405.50;24.80;;;;;13.00;96983.00;;;;8331366;28;20724;-83
2022/10/17 02:32:53;;;;;;;84.68;11.98;;;;;12.80;96978.00;;;;8331068;28;20223;-84
2022/10/17 02:37:00;;;;;;;337.73;21.85;;;;;12.70;96983.00;;;;8332011;28;20654;-83
2022/10/17 02:41:09;;;;;;;165.50;16.67;;;;;12.60;96989.00;;;;8330260;28;20675;-83
2022/10/17 02:45:14;;;;;;;313.00;18.83;;;;;12.50;96982.00;;;;8330869;28;20224;-83
2022/10/17 02:49:51;;;;;;;248.55;15.90;;;;;12.40;96987.00;;;;8331243;28;20228;-84
2022/10/17 02:54:04;;;;;;;167.20;13.70;;;;;12.30;96981.00;;;;8330096;28;20224;-84
2022/10/17 02:58:13;;;;;;;27.10;9.07;;;;;12.30;96988.00;;;;8331082;28;20223;-84
2022/10/17 03:02:17;;;;;;;128.07;11.43;;;;;12.20;96981.00;;;;8326303;28;20225;-84
2022/10/17 03:06:20;;;;;;;55.33;5.45;;;;;12.10;96983.00;;;;8330224;28;20226;-84
2022/10/17 03:10:23;;;;;;;47.90;5.47;;;;;12.00;96990.00;;;;8329626;28;20232;-83
2022/10/17 03:14:59;;;;;;;95.30;9.23;;;;;11.90;96989.00;;;;8330121;28;20713;-84
2022/10/17 03:19:02;;;;;;;65.20;7.35;;;;;11.80;96980.00;;;;8329641;28;20663;-84
2022/10/17 03:23:36;;;;;;;143.07;9.40;;;;;11.80;96983.00;;;;8328502;28;20642;-82
2022/10/17 03:28:13;;;;;;;154.75;10.45;;;;;11.60;96991.00;;;;8362048;28;20218;-82
2022/10/17 03:32:18;;;;;;;323.25;17.88;;;;;11.40;96997.00;;;;8331214;28;20225;-82
2022/10/17 03:36:51;;;;;;;193.57;12.73;;;;;11.30;96998.00;;;;8329604;28;20327;-84
2022/10/17 03:40:55;;;;;;;30.90;6.47;;;;;11.30;97002.00;;;;8328538;28;20215;-81
2022/10/17 03:44:58;;;;;;;122.60;9.98;;;;;11.20;96999.00;;;;8328408;28;20548;-87
2022/10/17 03:49:36;;;;;;;30.95;6.55;;;;;11.20;97002.00;;;;8325353;28;20217;-78
2022/10/17 03:54:10;;;;;;;7.80;5.30;;;;;11.20;97005.00;;;;8327163;28;20225;-79
2022/10/17 03:58:47;;;;;;;84.78;9.15;;;;;11.20;97004.00;;;;8326635;28;20217;-84
2022/10/17 04:03:24;;;;;;;25.20;6.35;;;;;11.10;97015.00;;;;8327328;28;20259;-83
2022/10/17 04:07:36;;;;;;;330.73;17.02;;;;;11.10;97013.00;;;;8327349;28;20224;-83
2022/10/17 04:12:12;;;;;;;104.95;8.68;;;;;11.10;97032.00;;;;8316011;28;20682;-82
2022/10/17 04:16:45;;;;;;;92.82;9.63;;;;;11.00;97020.00;;;;8326570;28;20315;-82
2022/10/17 04:21:13;;;;;;;101.93;9.75;;;;;11.00;97026.00;;;;8318813;28;20277;-82
2022/10/17 04:25:50;;;;;;;112.53;8.43;;;;;10.90;97035.00;;;;8327322;28;20219;-83
2022/10/17 04:30:26;;;;;;;195.27;13.57;;;;;10.90;97029.00;;;;8326439;28;20303;-82
2022/10/17 04:35:03;;;;;;;297.55;14.55;;;;;10.80;97040.00;;;;8369116;28;20231;-79
2022/10/17 04:39:40;;;;;;;82.05;8.60;;;;;10.70;97034.00;;;;8326337;28;20224;-80
2022/10/17 04:44:19;;;;;;;14.88;5.82;;;;;10.70;97034.00;;;;8327472;28;20571;-79
2022/10/17 04:48:53;;;;;;;106.88;10.27;;;;;10.70;97037.00;;;;8326414;28;20560;-79
2022/10/17 04:53:31;;;;;;;103.38;9.50;;;;;10.60;97032.00;;;;8326612;28;20243;-80
2022/10/17 04:58:05;;;;;;;225.20;13.82;;;;;10.50;97031.00;;;;8359271;28;20254;-79
2022/10/17 05:02:41;;;;;;;92.88;8.57;;;;;10.50;97032.00;;;;8328167;28;20222;-79
2022/10/17 05:07:20;;;;;;;24.40;8.23;;;;;10.40;97034.00;;;;8333963;28;20213;-82
2022/10/17 05:11:53;;;;;;;29.23;6.55;;;;;10.40;97034.00;;;;8333071;28;20312;-82
2022/10/17 05:16:31;;;;;;;31.30;7.18;;;;;10.50;97037.00;;;;8332592;28;20236;-82
2022/10/17 05:21:07;;;;;;;212.90;12.80;;;;;10.50;97047.00;;;;8333615;28;20244;-81
2022/10/17 05:25:46;;;;;;;24.63;5.43;;;;;10.50;97047.00;;;;8332999;28;20227;-83
2022/10/17 05:29:49;;;;;;;23.02;5.78;;;;;10.60;97044.00;;;;8332313;28;20213;-81
2022/10/17 05:39:28;;;;;;;97.78;9.73;;;;;10.50;97061.00;;;;8331608;28;20229;-83
2022/10/17 05:44:04;;;;;;;184.13;13.25;;;;;10.40;97055.00;;;;8332642;28;20224;-84
2022/10/17 05:48:38;;;;;;;281.33;17.48;;;;;10.50;97059.00;;;;8364719;28;20720;-84
2022/10/17 05:53:15;;;;;;;76.25;8.60;;;;;10.50;97066.00;;;;8333097;28;20300;-82
2022/10/17 05:57:52;;;;;;;72.13;8.65;;;;;10.60;97070.00;;;;8330794;28;20244;-82
2022/10/17 06:02:31;;;;;;;55.83;10.18;;;;;10.60;97078.00;;;;8336706;28;20655;-82
2022/10/17 06:07:05;;;;;;;97.70;10.68;;;;;10.70;97086.00;;;;8330201;28;20231;-82
2022/10/17 06:11:42;;;;;;;98.30;10.45;;;;;10.70;97082.00;;;;8363868;28;20232;-81
2022/10/17 06:16:19;;;;;;;97.93;10.68;;;;;10.80;97086.00;;;;8330932;28;20231;-81
2022/10/17 06:21:03;;;;;;;214.32;15.20;;;;;10.70;97087.00;;;;8331576;28;20268;-79
2022/10/17 06:25:30;;;;;;;93.47;11.07;;;;;10.70;97090.00;;;;8330564;28;20219;-80
2022/10/17 06:30:08;;;;;;;31.52;8.98;;;;;10.90;97094.00;;;;8363938;28;20558;-79
2022/10/17 06:34:44;;;;;;;136.80;14.48;;;;;11.10;97102.00;;;;8363162;28;20232;-81
2022/10/17 06:39:25;;;;;;;124.93;14.35;;;;;11.30;97103.00;;;;8362869;28;20221;-80
2022/10/17 06:43:56;;;;;;;51.45;11.18;;;;;11.40;97105.00;;;;8363654;28;20228;-78
2022/10/17 06:48:33;;;;;;;40.95;11.02;;;;;11.60;97106.00;;;;8333229;28;20251;-85
2022/10/17 06:53:09;;;;;;;93.95;12.52;;;;;11.90;97112.00;;;;8330317;28;20254;-86
2022/10/17 06:57:48;;;;;;;99.95;12.15;;;;;12.10;97112.00;;;;8362788;28;20274;-86
2022/10/17 07:02:24;;;;;;;363.48;20.38;;;;;12.30;97120.00;;;;8363763;28;20691;-87
2022/10/17 07:06:57;;;;;;;126.70;13.93;;;;;12.40;97127.00;;;;8330219;28;20233;-80
2022/10/17 07:11:33;;;;;;;37.20;9.20;;;;;12.50;97124.00;;;;8329683;28;20614;-76
2022/10/17 07:16:12;;;;;;;34.72;9.88;;;;;12.70;97122.00;;;;8330085;28;20290;-76
2022/10/17 07:20:52;;;;;;;22.65;7.88;;;;;12.90;97139.00;;;;8329505;28;20227;-76
2022/10/17 07:25:23;;;;;;;18.88;8.70;;;;;13.10;97142.00;;;;8328606;28;20223;-76
2022/10/17 07:30:00;;;;;;;28.63;9.13;;;;;13.20;97152.00;;;;8329980;28;20217;-76
2022/10/17 07:34:38;;;;;;;33.72;9.80;;;;;13.30;97156.00;;;;8328733;28;20255;-77
2022/10/17 07:39:11;;;;;;;72.00;11.75;;;;;13.50;97152.00;;;;8328254;28;20228;-77
2022/10/17 07:43:49;;;;;;;45.65;10.60;;;;;13.70;97161.00;;;;8362062;28;20642;-76
2022/10/17 07:48:26;;;;;;;43.53;10.48;;;;;14.00;97155.00;;;;8361664;28;20228;-76
2022/10/17 07:53:04;;;;;;;66.20;11.75;;;;;14.30;97156.00;;;;8361171;28;20216;-76
2022/10/17 07:57:39;;;;;;;72.63;13.80;;;;;14.70;97162.00;;;;8360628;28;20272;-76
2022/10/17 08:01:55;;;;;;;61.15;14.57;;;;;15.10;97163.00;;;;8328860;28;20243;-76
2022/10/17 08:06:28;;;;;;;70.50;15.43;;;;;15.50;97164.00;;;;8327669;28;20221;-76
2022/10/17 08:11:08;;;;;;;102.55;21.65;;;;;15.90;97163.00;;;;8327431;28;20600;-75
2022/10/17 08:15:41;;;;;;;115.80;30.98;;;;;16.20;97164.00;;;;8328205;28;20308;-75
2022/10/17 08:20:18;;;;;;;115.38;33.65;;;;;16.50;97169.00;;;;8360571;28;20221;-75
2022/10/17 08:24:55;;;;;;;116.90;33.53;;;;;16.90;97169.00;;;;8327601;28;20217;-75
2022/10/17 08:29:33;;;;;;;96.85;32.78;;;;;17.10;97167.00;;;;8327428;28;20662;-75
2022/10/17 08:33:36;;;;;;;99.32;33.00;;;;;17.30;97170.00;;;;8326491;28;20229;-75
2022/10/17 08:38:13;;;;;;;109.40;33.45;;;;;17.60;97169.00;;;;8325951;28;20229;-75
2022/10/17 08:42:55;;;;;;;93.13;31.75;;;;;17.80;97172.00;;;;8327892;28;20209;-74
2022/10/17 08:47:03;;;;;;;105.75;34.50;;;;;18.10;97175.00;;;;8326497;28;20568;-74
2022/10/17 08:51:36;;;;;;;114.63;35.53;;;;;18.40;97172.00;;;;8327153;28;20217;-74
2022/10/17 08:56:15;;;;;;;98.38;33.88;;;;;18.50;97175.00;;;;8327748;28;20224;-73
2022/10/17 09:00:54;;;;;;;85.75;33.08;;;;;18.60;97177.00;;;;8327257;28;20263;-74
2022/10/17 09:05:31;;;;;;;92.28;32.75;;;;;18.50;97183.00;;;;8327198;28;20234;-74
2022/10/17 09:10:03;;;;;;;87.18;32.10;;;;;18.50;97176.00;;;;8326813;28;20221;-73
2022/10/17 09:14:46;;;;;;;77.40;30.48;;;;;18.60;97183.00;;;;8327506;28;20220;-73
2022/10/17 09:19:17;;;;;;;67.18;29.63;;;;;18.70;97176.00;;;;8326811;28;20213;-73
2022/10/17 09:23:55;;;;;;;67.18;29.80;;;;;18.90;97183.00;;;;8360166;28;20224;-74
2022/10/17 09:28:33;;;;;;;60.70;28.20;;;;;19.10;97181.00;;;;8328208;28;20621;-70
2022/10/17 09:38:16;;;;;;;59.63;27.80;;;;;19.40;97189.00;;;;8325748;28;20228;-74
2022/10/17 09:42:25;;;;;;;51.83;27.17;;;;;19.40;97186.00;;;;8360689;28;20225;-74
2022/10/17 09:46:59;;;;;;;58.55;30.35;;;;;19.50;97195.00;;;;8356478;28;20217;-75
2022/10/17 09:51:29;;;;;;;53.85;28.77;;;;;19.50;97196.00;;;;8362428;28;20217;-74
2022/10/17 09:56:08;;;;;;;56.25;29.35;;;;;19.40;97196.00;;;;8331931;28;20320;-74
2022/10/17 10:00:47;;;;;;;52.50;27.02;;;;;19.50;97202.00;;;;8331734;28;20217;-81
2022/10/17 10:05:21;;;;;;;56.20;27.75;;;;;19.60;97200.00;;;;8365245;28;20220;-80
2022/10/17 10:09:59;;;;;;;49.25;26.95;;;;;19.60;97205.00;;;;8333154;28;20221;-76
2022/10/17 10:14:38;;;;;;;54.58;26.85;;;;;19.70;97196.00;;;;8363014;28;20232;-78
2022/10/17 10:19:21;;;;;;;51.50;26.25;;;;;19.70;97203.00;;;;8364689;28;20303;-80
2022/10/17 10:24:04;;;;;;;47.05;25.65;;;;;19.70;97207.00;;;;8331369;28;20228;-80
2022/10/17 10:28:54;;;;;;;43.90;25.30;;;;;19.70;97199.00;;;;8358391;28;20655;-78
2022/10/17 10:38:32;;;;;;;31.52;20.00;;;;;19.90;97196.00;;;;8358718;28;20231;-80
2022/10/17 10:43:07;;;;;;;36.03;19.92;;;;;20.20;97194.00;;;;8334953;28;20299;-80
2022/10/17 10:47:41;;;;;;;40.10;21.27;;;;;20.60;97189.00;;;;8329538;28;20217;-80
2022/10/17 10:52:21;;;;;;;28.73;19.70;;;;;20.70;97191.00;;;;8330189;28;20225;-80
2022/10/17 10:57:02;;;;;;;36.22;21.60;;;;;20.90;97186.00;;;;8328659;28;20229;-81
2022/10/17 11:01:32;;;;;;;32.83;19.52;;;;;21.10;97195.00;;;;8330353;28;20220;-80
2022/10/17 11:06:00;;;;;;;31.67;18.17;;;;;21.40;97199.00;;;;8329094;28;20266;-81
2022/10/17 11:10:39;;;;;;;30.40;18.92;;;;;21.50;97188.00;;;;8329161;28;20252;-80
2022/10/17 11:15:18;;;;;;;30.23;18.83;;;;;21.40;97187.00;;;;8329924;28;20225;-79
2022/10/17 11:19:52;;;;;;;35.10;18.55;;;;;21.20;97186.00;;;;8362813;28;20239;-79
2022/10/17 11:24:28;;;;;;;28.40;16.98;;;;;21.20;97183.00;;;;8330720;28;20235;-78
2022/10/17 11:29:06;;;;;;;31.17;18.00;;;;;21.20;97183.00;;;;8359768;28;20212;-79
2022/10/17 11:38:45;;;;;;;27.95;17.08;;;;;21.50;97174.00;;;;8360669;28;20212;-80
2022/10/17 11:43:18;;;;;;;23.23;14.90;;;;;21.60;97176.00;;;;8328849;28;20275;-79
2022/10/17 11:47:53;;;;;;;21.00;13.60;;;;;21.80;97180.00;;;;8362113;28;20228;-78
2022/10/17 11:52:34;;;;;;;22.88;13.77;;;;;21.70;97167.00;;;;8329317;28;20236;-79
2022/10/17 11:57:21;;;;;;;22.42;13.23;;;;;21.80;97175.00;;;;8327530;28;20635;-78
2022/10/17 12:01:46;;;;;;;19.00;13.00;;;;;21.90;97165.00;;;;8361757;28;20282;-79
2022/10/17 12:06:20;;;;;;;15.35;10.77;;;;;22.00;97160.00;;;;8329983;28;20217;-81
2022/10/17 12:10:58;;;;;;;13.80;10.50;;;;;22.00;97161.00;;;;8327932;28;20667;-78
2022/10/17 12:15:33;;;;;;;13.63;9.38;;;;;22.10;97162.00;;;;8359749;28;20492;-78
2022/10/17 12:20:24;;;;;;;11.95;8.73;;;;;22.10;97152.00;;;;8361196;28;20285;-78
2022/10/17 12:24:52;;;;;;;11.52;8.55;;;;;22.30;97148.00;;;;8359202;28;20342;-78
2022/10/17 12:29:26;;;;;;;14.98;9.35;;;;;22.40;97142.00;;;;8328672;28;20233;-78
2022/10/17 12:33:59;;;;;;;14.10;9.07;;;;;22.40;97148.00;;;;8327655;28;20221;-76
2022/10/17 12:43:44;;;;;;;13.73;9.45;;;;;22.10;97141.00;;;;8327194;28;20220;-76
2022/10/17 12:48:29;;;;;;;12.80;9.98;;;;;22.00;97148.00;;;;8327967;28;20586;-76
2022/10/17 12:53:02;;;;;;;12.38;8.60;;;;;22.00;97147.00;;;;8327072;28;20220;-76
2022/10/17 12:57:31;;;;;;;16.52;10.43;;;;;22.00;97141.00;;;;8327111;28;20328;-76
2022/10/17 13:02:11;;;;;;;18.30;9.43;;;;;22.10;97150.00;;;;8327212;28;20224;-76
2022/10/17 13:06:45;;;;;;;14.07;9.23;;;;;22.10;97157.00;;;;8327348;28;20225;-76
2022/10/17 13:10:52;;;;;;;12.15;8.70;;;;;22.30;97149.00;;;;8327642;28;20598;-76
2022/10/17 13:15:22;;;;;;;10.73;8.57;;;;;22.30;97145.00;;;;8326780;28;20228;-76
2022/10/17 13:19:59;;;;;;;11.88;8.48;;;;;22.30;97149.00;;;;8326855;28;26173;-76
2022/10/17 13:24:19;;;;;;;10.40;7.72;;;;;22.30;97156.00;;;;8328532;28;20225;-76
2022/10/17 13:28:39;;;;;;;11.88;7.68;;;;;22.40;97156.00;;;;8333349;28;20283;-76
2022/10/17 13:33:18;;;;;;;10.07;7.78;;;;;22.50;97161.00;;;;8333510;28;20267;-76
2022/10/17 13:37:21;;;;;;;9.55;7.57;;;;;22.60;97157.00;;;;8332863;28;20225;-76
2022/10/17 13:41:28;;;;;;;11.23;7.95;;;;;22.60;97159.00;;;;8333248;28;20221;-76
2022/10/17 13:46:04;;;;;;;10.10;7.63;;;;;22.70;97161.00;;;;8332452;28;20666;-76
2022/10/17 13:50:40;;;;;;;10.15;7.40;;;;;22.70;97158.00;;;;8333137;28;20232;-76
2022/10/17 13:54:50;;;;;;;9.00;6.18;;;;;22.80;97161.00;;;;8332704;28;20548;-76
2022/10/17 13:59:23;;;;;;;7.53;6.68;;;;;22.80;97158.00;;;;8333163;28;20216;-76
2022/10/17 14:03:28;;;;;;;7.15;5.50;;;;;22.90;97159.00;;;;8332342;28;20236;-76
2022/10/17 14:08:05;;;;;;;7.25;5.40;;;;;22.80;97168.00;;;;8332108;28;20221;-77
2022/10/17 14:12:15;;;;;;;6.55;5.50;;;;;22.70;97172.00;;;;8331757;28;20213;-77
2022/10/17 14:16:18;;;;;;;6.85;5.45;;;;;22.70;97169.00;;;;8332066;28;20222;-76
2022/10/17 14:20:40;;;;;;;9.35;5.10;;;;;22.70;97162.00;;;;8332066;28;20290;-76
2022/10/17 14:25:04;;;;;;;5.93;5.20;;;;;22.80;97174.00;;;;8332153;28;20225;-76
2022/10/17 14:29:51;;;;;;;8.82;4.80;;;;;22.80;97169.00;;;;8331303;28;20650;-76
2022/10/17 14:34:22;;;;;;;7.82;5.10;;;;;22.80;97169.00;;;;8329733;28;20213;-77
2022/10/17 14:43:59;;;;;;;6.07;5.22;;;;;22.80;97168.00;;;;8330848;28;20232;-76
2022/10/17 14:48:07;;;;;;;9.85;5.53;;;;;22.80;97174.00;;;;8330294;28;20218;-76
2022/10/17 14:52:38;;;;;;;7.07;5.10;;;;;22.80;97174.00;;;;8328367;28;20647;-78
2022/10/17 14:56:43;;;;;;;8.02;4.88;;;;;22.70;97173.00;;;;8329870;28;20228;-76
2022/10/17 15:00:47;;;;;;;8.85;4.95;;;;;22.60;97183.00;;;;8330611;28;20268;-77
2022/10/17 15:05:29;;;;;;;6.53;5.13;;;;;22.60;97195.00;;;;8330572;28;20217;-77
2022/10/17 15:09:32;;;;;;;10.10;4.97;;;;;22.60;97195.00;;;;8327619;28;20309;-71
2022/10/17 15:14:06;;;;;;;5.78;4.70;;;;;22.50;97207.00;;;;8329127;28;20217;-72
2022/10/17 15:18:44;;;;;;;11.45;5.22;;;;;22.40;97192.00;;;;8325994;28;20647;-72
2022/10/17 15:23:18;;;;;;;7.03;4.90;;;;;22.30;97193.00;;;;8328555;28;20555;-72
2022/10/17 15:27:22;;;;;;;7.15;4.82;;;;;22.20;97212.00;;;;8328866;28;20556;-72
2022/10/17 15:31:56;;;;;;;7.15;4.85;;;;;22.00;97213.00;;;;8329598;28;20275;-72
2022/10/17 15:36:23;;;;;;;5.63;5.00;;;;;21.90;97209.00;;;;8329250;28;20225;-72
2022/10/17 15:40:28;;;;;;;6.15;4.70;;;;;21.70;97218.00;;;;8328767;28;20654;-72
2022/10/17 15:45:02;;;;;;;8.27;5.40;;;;;21.50;97223.00;;;;8329109;28;20837;-72
2022/10/17 15:49:39;;;;;;;8.68;4.90;;;;;21.30;97212.00;;;;8329654;28;20614;-72
2022/10/17 15:53:44;;;;;;;9.80;5.47;;;;;21.20;97222.00;;;;8328789;28;20217;-73
2022/10/17 15:57:48;;;;;;;8.98;5.50;;;;;20.90;97217.00;;;;8328408;28;20229;-73
2022/10/17 16:02:23;;;;;;;6.97;5.45;;;;;20.60;97213.00;;;;8328981;28;20217;-72
2022/10/17 16:06:57;;;;;;;9.48;5.35;;;;;20.30;97214.00;;;;8328514;28;20221;-72
2022/10/17 16:11:01;;;;;;;11.77;5.90;;;;;20.00;97214.00;;;;8327906;28;20217;-72
2022/10/17 16:15:05;;;;;;;14.35;6.03;;;;;19.60;97226.00;;;;8324853;28;20562;-73
2022/10/17 16:19:39;;;;;;;10.65;6.28;;;;;19.30;97236.00;;;;8327588;28;20255;-73
2022/10/17 16:24:17;;;;;;;9.25;6.18;;;;;18.90;97238.00;;;;8326375;28;20217;-72
2022/10/17 16:28:51;;;;;;;10.50;6.50;;;;;18.50;97239.00;;;;8327500;28;20229;-72
2022/10/17 16:33:30;;;;;;;13.55;7.20;;;;;18.10;97229.00;;;;8328395;28;20224;-72
2022/10/17 16:37:34;;;;;;;13.77;6.90;;;;;17.80;97237.00;;;;8327073;28;20276;-73
2022/10/17 16:42:08;;;;;;;15.25;6.95;;;;;17.50;97237.00;;;;8328096;28;20224;-73
2022/10/17 16:46:44;;;;;;;9.63;7.03;;;;;17.20;97240.00;;;;8326342;28;20221;-73
2022/10/17 16:51:22;;;;;;;13.23;6.78;;;;;16.90;97239.00;;;;8324042;28;20210;-72
2022/10/17 16:55:25;;;;;;;17.60;7.38;;;;;16.70;97238.00;;;;8323606;28;20224;-72
2022/10/17 17:00:03;;;;;;;15.38;8.48;;;;;16.50;97239.00;;;;8325741;28;20233;-72
2022/10/17 17:04:40;;;;;;;16.50;8.93;;;;;16.30;97245.00;;;;8334202;28;20220;-71
2022/10/17 17:09:18;;;;;;;12.05;7.85;;;;;16.10;97233.00;;;;8332808;28;20223;-75
2022/10/17 17:13:54;;;;;;;17.85;8.55;;;;;15.90;97255.00;;;;8332354;28;20225;-76
2022/10/17 17:18:28;;;;;;;27.60;12.63;;;;;15.80;97246.00;;;;8332455;28;20575;-75
2022/10/17 17:23:05;;;;;;;14.27;8.35;;;;;15.70;97241.00;;;;8355891;28;20231;-75
2022/10/17 17:27:42;;;;;;;23.90;11.55;;;;;15.60;97242.00;;;;8332618;28;20229;-75
2022/10/17 17:32:20;;;;;;;26.20;13.40;;;;;15.50;97239.00;;;;8364989;28;20627;-75
2022/10/17 17:36:54;;;;;;;20.77;9.90;;;;;15.40;97241.00;;;;8362437;28;20247;-76
2022/10/17 17:41:31;;;;;;;16.13;9.82;;;;;15.30;97244.00;;;;8334146;28;20300;-77
2022/10/17 17:46:08;;;;;;;21.70;9.63;;;;;15.30;97244.00;;;;8331590;28;20228;-76
2022/10/17 17:50:46;;;;;;;19.92;9.93;;;;;15.20;97254.00;;;;8332561;28;20524;-72
2022/10/17 17:55:20;;;;;;;18.70;10.48;;;;;15.20;97247.00;;;;8331899;28;20222;-73
2022/10/17 17:59:57;;;;;;;20.90;10.60;;;;;15.10;97249.00;;;;8364359;28;20224;-72
2022/10/17 18:04:34;;;;;;;19.67;11.02;;;;;15.00;97258.00;;;;8361339;28;20212;-72
2022/10/17 18:09:12;;;;;;;24.42;11.85;;;;;14.90;97256.00;;;;8365270;28;25461;-72
2022/10/17 18:13:46;;;;;;;29.20;13.43;;;;;14.90;97270.00;;;;8330120;28;20544;-71
2022/10/17 18:18:24;;;;;;;26.52;11.55;;;;;14.80;97268.00;;;;8330793;28;20221;-72
2022/10/17 18:23:01;;;;;;;21.40;11.05;;;;;14.80;97268.00;;;;8331814;28;20214;-72
2022/10/17 18:27:48;;;;;;;22.90;11.25;;;;;14.70;97271.00;;;;8331678;28;20222;-72
2022/10/17 18:32:19;;;;;;;26.83;12.32;;;;;14.60;97266.00;;;;8362898;28;20220;-72
2022/10/17 18:36:24;;;;;;;32.38;15.05;;;;;14.60;97274.00;;;;8329595;28;20221;-73
2022/10/17 18:46:02;;;;;;;28.98;11.23;;;;;14.50;97267.00;;;;8333189;28;20228;-73
2022/10/17 18:50:38;;;;;;;23.25;11.70;;;;;14.40;97272.00;;;;8316955;28;20683;-71
2022/10/17 18:55:19;;;;;;;23.85;11.63;;;;;14.40;97275.00;;;;8329189;28;20218;-71
2022/10/17 18:59:53;;;;;;;30.67;12.63;;;;;14.40;97273.00;;;;8328845;28;20222;-71
2022/10/17 19:04:30;;;;;;;23.60;11.13;;;;;14.40;97278.00;;;;8361770;28;20220;-71
2022/10/17 19:09:07;;;;;;;32.80;11.73;;;;;14.30;97268.00;;;;8330510;28;20229;-71
2022/10/17 19:13:41;;;;;;;26.92;10.55;;;;;14.20;97276.00;;;;8363238;28;20228;-71
2022/10/17 19:18:19;;;;;;;24.80;11.68;;;;;14.20;97276.00;;;;8351666;28;20236;-72
2022/10/17 19:22:53;;;;;;;25.88;12.38;;;;;14.20;97279.00;;;;8329307;28;20287;-72
2022/10/17 19:27:29;;;;;;;30.42;12.00;;;;;14.20;97292.00;;;;8329507;28;20221;-72
2022/10/17 19:32:09;;;;;;;25.17;11.30;;;;;14.10;97302.00;;;;8352507;28;20731;-73
2022/10/17 19:36:46;;;;;;;25.25;12.05;;;;;14.10;97302.00;;;;8329208;28;20308;-72
2022/10/17 19:41:21;;;;;;;26.63;11.38;;;;;14.10;97301.00;;;;8362317;28;20212;-72
2022/10/17 19:45:55;;;;;;;55.95;12.80;;;;;14.10;97307.00;;;;8331850;28;20217;-72
2022/10/17 19:50:32;;;;;;;680.72;37.60;;;;;14.00;97306.00;;;;8327648;28;20686;-73
2022/10/17 19:55:07;;;;;;;408.23;23.98;;;;;14.00;97313.00;;;;8329299;28;20220;-72
2022/10/17 19:59:13;;;;;;;394.38;27.38;;;;;13.90;97306.00;;;;8360143;28;20334;-73
2022/10/17 20:03:17;;;;;;;430.65;29.38;;;;;13.90;97308.00;;;;8361962;28;20225;-73
2022/10/17 20:07:20;;;;;;;650.75;40.40;;;;;13.80;97311.00;;;;8361244;28;20232;-73
2022/10/17 20:11:25;;;;;;;602.30;34.58;;;;;13.70;97298.00;;;;8332175;28;20228;-73
2022/10/17 20:15:29;;;;;;;202.25;23.88;;;;;13.70;97303.00;;;;8328599;28;20275;-72
2022/10/17 20:19:33;;;;;;;65.55;15.13;;;;;13.60;97307.00;;;;8328469;28;20658;-73
2022/10/17 20:23:36;;;;;;;60.33;16.98;;;;;13.50;97308.00;;;;8328118;28;20225;-72
2022/10/17 20:27:39;;;;;;;32.45;14.13;;;;;13.50;97312.00;;;;8328484;28;20236;-72
2022/10/17 20:31:45;;;;;;;71.88;17.52;;;;;13.50;97316.00;;;;8327437;28;20228;-72
2022/10/17 20:36:22;;;;;;;396.88;30.38;;;;;13.50;97307.00;;;;8327801;28;20300;-72
2022/10/17 20:40:25;;;;;;;291.77;28.45;;;;;13.50;97320.00;;;;8326914;28;20263;-72
2022/10/17 20:44:37;;;;;;;706.10;40.72;;;;;13.50;97318.00;;;;8327903;28;20226;-72
2022/10/17 20:49:17;;;;;;;250.02;25.60;;;;;13.40;97325.00;;;;8326974;28;20574;-71
2022/10/17 20:53:20;;;;;;;288.20;28.00;;;;;13.40;97311.00;;;;8327341;28;20220;-71
2022/10/17 20:57:39;;;;;;;411.15;31.63;;;;;13.50;97301.00;;;;8326598;28;20229;-72
2022/10/17 21:01:43;;;;;;;879.80;58.72;;;;;13.40;97306.00;;;;8327705;28;20659;-71
2022/10/17 21:06:22;;;;;;;165.07;21.75;;;;;13.30;97313.00;;;;8327384;28;20559;-71
2022/10/17 21:10:25;;;;;;;65.28;18.38;;;;;13.20;97316.00;;;;8326739;28;20226;-71
2022/10/17 21:14:37;;;;;;;65.13;18.95;;;;;13.30;97310.00;;;;8327115;28;20286;-72
2022/10/17 21:19:15;;;;;;;35.63;15.73;;;;;13.30;97323.00;;;;8327216;28;20240;-72
2022/10/17 21:23:19;;;;;;;33.28;13.55;;;;;13.30;97323.00;;;;8359804;28;20217;-71
2022/10/17 21:27:22;;;;;;;196.02;23.55;;;;;13.20;97318.00;;;;8360009;28;20274;-72
2022/10/17 21:31:59;;;;;;;38.60;14.93;;;;;13.20;97322.00;;;;8359291;28;20228;-72
2022/10/17 21:36:02;;;;;;;158.95;17.52;;;;;13.10;97325.00;;;;8329514;28;20655;-72
2022/10/17 21:40:08;;;;;;;150.73;17.98;;;;;13.10;97326.00;;;;8325432;28;20221;-71
2022/10/17 21:44:42;;;;;;;326.95;23.77;;;;;13.00;97325.00;;;;8326906;28;20221;-71
2022/10/17 21:48:46;;;;;;;310.00;25.55;;;;;12.90;97335.00;;;;8387958;28;20282;-71
2022/10/17 21:53:20;;;;;;;405.35;29.83;;;;;12.80;97329.00;;;;8366096;28;20647;-71
2022/10/17 21:57:24;;;;;;;517.42;33.95;;;;;12.80;97323.00;;;;8332365;28;20225;-72
2022/10/17 22:01:58;;;;;;;593.65;36.03;;;;;12.80;97322.00;;;;8332208;28;20240;-72
2022/10/17 22:06:01;;;;;;;479.85;28.58;;;;;12.70;97322.00;;;;8331846;28;20232;-72
2022/10/17 22:10:24;;;;;;;407.50;27.83;;;;;12.70;97325.00;;;;8331498;28;20706;-72
2022/10/17 22:14:28;;;;;;;771.53;39.88;;;;;12.60;97333.00;;;;8331792;28;20225;-74
2022/10/17 22:18:32;;;;;;;423.67;27.55;;;;;12.50;97330.00;;;;8331705;28;20659;-73
2022/10/17 22:22:35;;;;;;;441.52;30.45;;;;;12.50;97330.00;;;;8331560;28;20597;-72